sensor_id;sensor_type;location;lat;lon;timestamp;P1;durP1;ratioP1;P2;durP2;ratioP2
74196;SDS011;62555;52.678;4.900;2023-10-31T00:01:12;1.53;;;1.03;;
74196;SDS011;62555;52.678;4.900;2023-10-31T00:03:38;4.00;;;1.30;;
74196;SDS011;62555;52.678;4.900;2023-10-31T00:06:05;1.88;;;1.30;;
74196;SDS011;62555;52.678;4.900;2023-10-31T00:08:30;1.87;;;1.20;;
74196;SDS011;62555;52.678;4.900;2023-10-31T00:10:55;1.97;;;1.00;;
74196;SDS011;62555;52.678;4.900;2023-10-31T00:13:20;2.20;;;1.17;;
74196;SDS011;62555;52.678;4.900;2023-10-31T00:15:45;2.00;;;1.37;;
74196;SDS011;62555;52.678;4.900;2023-10-31T00:18:11;2.03;;;1.10;;
74196;SDS011;62555;52.678;4.900;2023-10-31T00:20:36;2.23;;;0.90;;
74196;SDS011;62555;52.678;4.900;2023-10-31T00:23:01;1.95;;;1.25;;
74196;SDS011;62555;52.678;4.900;2023-10-31T00:25:26;1.90;;;1.40;;
74196;SDS011;62555;52.678;4.900;2023-10-31T00:27:51;1.40;;;1.00;;
74196;SDS011;62555;52.678;4.900;2023-10-31T00:30:16;2.20;;;1.40;;
74196;SDS011;62555;52.678;4.900;2023-10-31T00:32:42;3.77;;;1.33;;
74196;SDS011;62555;52.678;4.900;2023-10-31T00:35:07;1.60;;;0.97;;
74196;SDS011;62555;52.678;4.900;2023-10-31T00:37:32;1.20;;;0.80;;
74196;SDS011;62555;52.678;4.900;2023-10-31T00:39:57;1.65;;;0.80;;
74196;SDS011;62555;52.678;4.900;2023-10-31T00:42:22;3.90;;;1.10;;
74196;SDS011;62555;52.678;4.900;2023-10-31T00:44:48;1.75;;;0.80;;
74196;SDS011;62555;52.678;4.900;2023-10-31T00:47:13;1.60;;;0.90;;
74196;SDS011;62555;52.678;4.900;2023-10-31T00:49:39;2.67;;;1.00;;
74196;SDS011;62555;52.678;4.900;2023-10-31T00:52:04;1.20;;;0.85;;
74196;SDS011;62555;52.678;4.900;2023-10-31T00:54:29;2.13;;;1.03;;
74196;SDS011;62555;52.678;4.900;2023-10-31T00:56:55;2.20;;;1.00;;
74196;SDS011;62555;52.678;4.900;2023-10-31T00:59:20;1.83;;;0.80;;
74196;SDS011;62555;52.678;4.900;2023-10-31T01:01:45;1.27;;;0.90;;
74196;SDS011;62555;52.678;4.900;2023-10-31T01:04:10;1.37;;;0.93;;
74196;SDS011;62555;52.678;4.900;2023-10-31T01:06:42;1.95;;;0.70;;
74196;SDS011;62555;52.678;4.900;2023-10-31T01:09:07;1.52;;;0.77;;
74196;SDS011;62555;52.678;4.900;2023-10-31T01:11:33;1.67;;;0.93;;
74196;SDS011;62555;52.678;4.900;2023-10-31T01:13:58;1.13;;;0.80;;
74196;SDS011;62555;52.678;4.900;2023-10-31T01:16:23;1.47;;;0.93;;
74196;SDS011;62555;52.678;4.900;2023-10-31T01:18:48;1.50;;;1.10;;
74196;SDS011;62555;52.678;4.900;2023-10-31T01:21:13;1.48;;;1.00;;
74196;SDS011;62555;52.678;4.900;2023-10-31T01:23:38;2.03;;;1.05;;
74196;SDS011;62555;52.678;4.900;2023-10-31T01:26:03;1.63;;;0.80;;
74196;SDS011;62555;52.678;4.900;2023-10-31T01:28:29;1.77;;;1.67;;
74196;SDS011;62555;52.678;4.900;2023-10-31T01:30:54;1.73;;;0.77;;
74196;SDS011;62555;52.678;4.900;2023-10-31T01:33:19;1.15;;;0.73;;
74196;SDS011;62555;52.678;4.900;2023-10-31T01:35:44;2.17;;;0.90;;
74196;SDS011;62555;52.678;4.900;2023-10-31T01:38:09;1.20;;;0.73;;
74196;SDS011;62555;52.678;4.900;2023-10-31T01:40:34;1.38;;;0.80;;
74196;SDS011;62555;52.678;4.900;2023-10-31T01:42:59;1.30;;;0.73;;
74196;SDS011;62555;52.678;4.900;2023-10-31T01:45:25;0.73;;;0.60;;
74196;SDS011;62555;52.678;4.900;2023-10-31T01:47:50;1.33;;;0.70;;
74196;SDS011;62555;52.678;4.900;2023-10-31T01:50:15;1.05;;;0.82;;
74196;SDS011;62555;52.678;4.900;2023-10-31T01:52:41;1.52;;;1.35;;
74196;SDS011;62555;52.678;4.900;2023-10-31T01:55:06;1.85;;;0.60;;
74196;SDS011;62555;52.678;4.900;2023-10-31T01:57:32;2.05;;;0.82;;
74196;SDS011;62555;52.678;4.900;2023-10-31T01:59:57;1.47;;;0.80;;
74196;SDS011;62555;52.678;4.900;2023-10-31T02:02:23;1.27;;;0.83;;
74196;SDS011;62555;52.678;4.900;2023-10-31T02:04:49;1.45;;;0.70;;
74196;SDS011;62555;52.678;4.900;2023-10-31T02:07:14;2.53;;;1.10;;
74196;SDS011;62555;52.678;4.900;2023-10-31T02:09:40;1.45;;;0.70;;
74196;SDS011;62555;52.678;4.900;2023-10-31T02:12:05;1.63;;;0.90;;
74196;SDS011;62555;52.678;4.900;2023-10-31T02:14:30;1.53;;;0.77;;
74196;SDS011;62555;52.678;4.900;2023-10-31T02:16:55;3.13;;;0.67;;
74196;SDS011;62555;52.678;4.900;2023-10-31T02:19:20;1.20;;;0.73;;
74196;SDS011;62555;52.678;4.900;2023-10-31T02:21:46;0.88;;;0.60;;
74196;SDS011;62555;52.678;4.900;2023-10-31T02:24:11;0.80;;;0.50;;
74196;SDS011;62555;52.678;4.900;2023-10-31T02:26:36;2.63;;;0.70;;
74196;SDS011;62555;52.678;4.900;2023-10-31T02:29:02;1.98;;;0.90;;
74196;SDS011;62555;52.678;4.900;2023-10-31T02:31:27;2.42;;;0.70;;
74196;SDS011;62555;52.678;4.900;2023-10-31T02:33:53;0.90;;;0.57;;
74196;SDS011;62555;52.678;4.900;2023-10-31T02:36:18;1.53;;;0.50;;
74196;SDS011;62555;52.678;4.900;2023-10-31T02:38:43;1.02;;;0.50;;
74196;SDS011;62555;52.678;4.900;2023-10-31T02:41:08;2.03;;;0.80;;
74196;SDS011;62555;52.678;4.900;2023-10-31T02:43:34;2.00;;;0.60;;
74196;SDS011;62555;52.678;4.900;2023-10-31T02:45:59;2.83;;;0.77;;
74196;SDS011;62555;52.678;4.900;2023-10-31T02:48:24;1.20;;;0.90;;
74196;SDS011;62555;52.678;4.900;2023-10-31T02:50:50;1.30;;;0.60;;
74196;SDS011;62555;52.678;4.900;2023-10-31T02:53:15;2.00;;;0.60;;
74196;SDS011;62555;52.678;4.900;2023-10-31T02:55:40;0.77;;;0.70;;
74196;SDS011;62555;52.678;4.900;2023-10-31T02:58:05;1.23;;;0.70;;
74196;SDS011;62555;52.678;4.900;2023-10-31T03:00:30;2.57;;;0.53;;
74196;SDS011;62555;52.678;4.900;2023-10-31T03:02:55;3.22;;;0.50;;
74196;SDS011;62555;52.678;4.900;2023-10-31T03:05:21;1.63;;;0.63;;
74196;SDS011;62555;52.678;4.900;2023-10-31T03:07:46;1.10;;;0.70;;
74196;SDS011;62555;52.678;4.900;2023-10-31T03:10:11;1.27;;;0.50;;
74196;SDS011;62555;52.678;4.900;2023-10-31T03:12:36;1.33;;;0.40;;
74196;SDS011;62555;52.678;4.900;2023-10-31T03:15:02;1.90;;;0.50;;
74196;SDS011;62555;52.678;4.900;2023-10-31T03:17:28;1.30;;;0.50;;
74196;SDS011;62555;52.678;4.900;2023-10-31T03:19:53;2.77;;;0.63;;
74196;SDS011;62555;52.678;4.900;2023-10-31T03:22:19;1.15;;;0.57;;
74196;SDS011;62555;52.678;4.900;2023-10-31T03:24:44;0.73;;;0.50;;
74196;SDS011;62555;52.678;4.900;2023-10-31T03:27:09;0.77;;;0.40;;
74196;SDS011;62555;52.678;4.900;2023-10-31T03:29:34;1.00;;;0.45;;
74196;SDS011;62555;52.678;4.900;2023-10-31T03:31:59;1.10;;;0.47;;
74196;SDS011;62555;52.678;4.900;2023-10-31T03:34:25;0.83;;;0.70;;
74196;SDS011;62555;52.678;4.900;2023-10-31T03:36:50;0.73;;;0.45;;
74196;SDS011;62555;52.678;4.900;2023-10-31T03:39:15;1.85;;;0.50;;
74196;SDS011;62555;52.678;4.900;2023-10-31T03:41:40;2.13;;;0.47;;
74196;SDS011;62555;52.678;4.900;2023-10-31T03:44:07;0.60;;;0.30;;
74196;SDS011;62555;52.678;4.900;2023-10-31T03:46:32;1.67;;;0.57;;
74196;SDS011;62555;52.678;4.900;2023-10-31T03:48:57;1.07;;;0.40;;
74196;SDS011;62555;52.678;4.900;2023-10-31T03:51:22;2.15;;;0.38;;
74196;SDS011;62555;52.678;4.900;2023-10-31T03:53:48;0.70;;;0.40;;
74196;SDS011;62555;52.678;4.900;2023-10-31T03:56:13;1.38;;;0.45;;
74196;SDS011;62555;52.678;4.900;2023-10-31T03:58:39;1.65;;;0.50;;
74196;SDS011;62555;52.678;4.900;2023-10-31T04:01:04;1.95;;;0.30;;
74196;SDS011;62555;52.678;4.900;2023-10-31T04:03:29;1.17;;;0.93;;
74196;SDS011;62555;52.678;4.900;2023-10-31T04:05:55;1.25;;;0.50;;
74196;SDS011;62555;52.678;4.900;2023-10-31T04:08:20;0.80;;;0.40;;
74196;SDS011;62555;52.678;4.900;2023-10-31T04:10:45;1.83;;;0.68;;
74196;SDS011;62555;52.678;4.900;2023-10-31T04:13:10;1.53;;;0.50;;
74196;SDS011;62555;52.678;4.900;2023-10-31T04:15:35;1.50;;;0.43;;
74196;SDS011;62555;52.678;4.900;2023-10-31T04:18:00;1.60;;;0.40;;
74196;SDS011;62555;52.678;4.900;2023-10-31T04:20:25;1.05;;;0.40;;
74196;SDS011;62555;52.678;4.900;2023-10-31T04:22:51;0.80;;;0.50;;
74196;SDS011;62555;52.678;4.900;2023-10-31T04:25:16;1.53;;;0.40;;
74196;SDS011;62555;52.678;4.900;2023-10-31T04:27:41;0.83;;;0.20;;
74196;SDS011;62555;52.678;4.900;2023-10-31T04:30:06;0.88;;;0.40;;
74196;SDS011;62555;52.678;4.900;2023-10-31T04:32:31;0.80;;;0.30;;
74196;SDS011;62555;52.678;4.900;2023-10-31T04:34:57;0.20;;;0.20;;
74196;SDS011;62555;52.678;4.900;2023-10-31T04:37:22;0.47;;;0.28;;
74196;SDS011;62555;52.678;4.900;2023-10-31T04:39:47;0.67;;;0.30;;
74196;SDS011;62555;52.678;4.900;2023-10-31T04:42:13;0.87;;;0.53;;
74196;SDS011;62555;52.678;4.900;2023-10-31T04:44:38;1.08;;;0.40;;
74196;SDS011;62555;52.678;4.900;2023-10-31T04:47:03;1.38;;;0.32;;
74196;SDS011;62555;52.678;4.900;2023-10-31T04:49:28;0.77;;;0.50;;
74196;SDS011;62555;52.678;4.900;2023-10-31T04:51:53;1.57;;;0.40;;
74196;SDS011;62555;52.678;4.900;2023-10-31T04:54:18;1.77;;;0.60;;
74196;SDS011;62555;52.678;4.900;2023-10-31T04:56:43;1.63;;;0.32;;
74196;SDS011;62555;52.678;4.900;2023-10-31T04:59:09;1.77;;;0.50;;
74196;SDS011;62555;52.678;4.900;2023-10-31T05:01:34;0.77;;;0.37;;
74196;SDS011;62555;52.678;4.900;2023-10-31T05:03:59;0.40;;;0.30;;
74196;SDS011;62555;52.678;4.900;2023-10-31T05:06:24;0.57;;;0.23;;
74196;SDS011;62555;52.678;4.900;2023-10-31T05:08:49;0.52;;;0.38;;
74196;SDS011;62555;52.678;4.900;2023-10-31T05:11:17;1.40;;;0.40;;
74196;SDS011;62555;52.678;4.900;2023-10-31T05:13:43;0.63;;;0.30;;
74196;SDS011;62555;52.678;4.900;2023-10-31T05:16:08;1.13;;;0.30;;
74196;SDS011;62555;52.678;4.900;2023-10-31T05:18:36;0.30;;;0.30;;
74196;SDS011;62555;52.678;4.900;2023-10-31T05:21:01;0.68;;;0.30;;
74196;SDS011;62555;52.678;4.900;2023-10-31T05:23:26;1.43;;;0.30;;
74196;SDS011;62555;52.678;4.900;2023-10-31T05:25:51;1.17;;;0.30;;
74196;SDS011;62555;52.678;4.900;2023-10-31T05:28:16;0.93;;;0.20;;
74196;SDS011;62555;52.678;4.900;2023-10-31T05:30:42;1.13;;;0.33;;
74196;SDS011;62555;52.678;4.900;2023-10-31T05:33:07;0.35;;;0.20;;
74196;SDS011;62555;52.678;4.900;2023-10-31T05:35:33;1.43;;;0.30;;
74196;SDS011;62555;52.678;4.900;2023-10-31T05:37:58;0.28;;;0.25;;
74196;SDS011;62555;52.678;4.900;2023-10-31T05:40:23;0.30;;;0.30;;
74196;SDS011;62555;52.678;4.900;2023-10-31T05:42:50;0.85;;;0.40;;
74196;SDS011;62555;52.678;4.900;2023-10-31T05:45:15;1.20;;;0.77;;
74196;SDS011;62555;52.678;4.900;2023-10-31T05:47:40;0.30;;;0.20;;
74196;SDS011;62555;52.678;4.900;2023-10-31T05:50:06;0.47;;;0.30;;
74196;SDS011;62555;52.678;4.900;2023-10-31T05:52:31;1.48;;;0.32;;
74196;SDS011;62555;52.678;4.900;2023-10-31T05:54:57;1.80;;;0.50;;
74196;SDS011;62555;52.678;4.900;2023-10-31T05:57:22;1.67;;;0.50;;
74196;SDS011;62555;52.678;4.900;2023-10-31T05:59:47;1.57;;;0.50;;
74196;SDS011;62555;52.678;4.900;2023-10-31T06:02:13;1.20;;;0.30;;
74196;SDS011;62555;52.678;4.900;2023-10-31T06:04:38;0.52;;;0.20;;
74196;SDS011;62555;52.678;4.900;2023-10-31T06:07:03;0.68;;;0.32;;
74196;SDS011;62555;52.678;4.900;2023-10-31T06:09:29;1.60;;;0.40;;
74196;SDS011;62555;52.678;4.900;2023-10-31T06:11:54;0.47;;;0.30;;
74196;SDS011;62555;52.678;4.900;2023-10-31T06:14:19;2.23;;;0.37;;
74196;SDS011;62555;52.678;4.900;2023-10-31T06:16:44;0.93;;;0.52;;
74196;SDS011;62555;52.678;4.900;2023-10-31T06:19:09;1.02;;;0.20;;
74196;SDS011;62555;52.678;4.900;2023-10-31T06:21:35;0.35;;;0.20;;
74196;SDS011;62555;52.678;4.900;2023-10-31T06:24:00;0.80;;;0.25;;
74196;SDS011;62555;52.678;4.900;2023-10-31T06:26:25;1.67;;;0.30;;
74196;SDS011;62555;52.678;4.900;2023-10-31T06:28:50;2.67;;;1.48;;
74196;SDS011;62555;52.678;4.900;2023-10-31T06:31:15;1.33;;;0.28;;
74196;SDS011;62555;52.678;4.900;2023-10-31T06:33:40;0.77;;;0.30;;
74196;SDS011;62555;52.678;4.900;2023-10-31T06:36:06;0.57;;;0.30;;
74196;SDS011;62555;52.678;4.900;2023-10-31T06:38:32;1.15;;;0.40;;
74196;SDS011;62555;52.678;4.900;2023-10-31T06:40:57;1.20;;;0.40;;
74196;SDS011;62555;52.678;4.900;2023-10-31T06:43:22;1.75;;;0.40;;
74196;SDS011;62555;52.678;4.900;2023-10-31T06:45:47;0.88;;;0.28;;
74196;SDS011;62555;52.678;4.900;2023-10-31T06:48:12;0.50;;;0.43;;
74196;SDS011;62555;52.678;4.900;2023-10-31T06:50:38;0.85;;;0.60;;
74196;SDS011;62555;52.678;4.900;2023-10-31T06:53:03;1.65;;;0.30;;
74196;SDS011;62555;52.678;4.900;2023-10-31T06:55:28;0.90;;;0.40;;
74196;SDS011;62555;52.678;4.900;2023-10-31T06:57:54;0.70;;;0.40;;
74196;SDS011;62555;52.678;4.900;2023-10-31T07:00:19;3.70;;;1.53;;
74196;SDS011;62555;52.678;4.900;2023-10-31T07:02:45;1.13;;;0.30;;
74196;SDS011;62555;52.678;4.900;2023-10-31T07:05:12;3.53;;;0.50;;
74196;SDS011;62555;52.678;4.900;2023-10-31T07:07:37;1.13;;;0.37;;
74196;SDS011;62555;52.678;4.900;2023-10-31T07:10:02;1.50;;;0.37;;
74196;SDS011;62555;52.678;4.900;2023-10-31T07:12:27;0.70;;;0.40;;
74196;SDS011;62555;52.678;4.900;2023-10-31T07:14:53;2.28;;;0.47;;
74196;SDS011;62555;52.678;4.900;2023-10-31T07:17:18;1.60;;;0.57;;
74196;SDS011;62555;52.678;4.900;2023-10-31T07:19:43;1.20;;;0.70;;
74196;SDS011;62555;52.678;4.900;2023-10-31T07:22:08;1.38;;;0.77;;
74196;SDS011;62555;52.678;4.900;2023-10-31T07:24:33;1.88;;;0.60;;
74196;SDS011;62555;52.678;4.900;2023-10-31T07:29:26;1.85;;;0.32;;
74196;SDS011;62555;52.678;4.900;2023-10-31T07:31:51;1.30;;;0.40;;
74196;SDS011;62555;52.678;4.900;2023-10-31T07:34:16;2.40;;;0.40;;
74196;SDS011;62555;52.678;4.900;2023-10-31T07:36:42;0.70;;;0.35;;
74196;SDS011;62555;52.678;4.900;2023-10-31T07:39:07;1.05;;;0.50;;
74196;SDS011;62555;52.678;4.900;2023-10-31T07:41:32;2.92;;;0.35;;
74196;SDS011;62555;52.678;4.900;2023-10-31T07:43:57;0.70;;;0.37;;
74196;SDS011;62555;52.678;4.900;2023-10-31T07:46:22;0.90;;;0.50;;
74196;SDS011;62555;52.678;4.900;2023-10-31T07:48:48;0.55;;;0.50;;
74196;SDS011;62555;52.678;4.900;2023-10-31T07:51:13;1.17;;;0.30;;
74196;SDS011;62555;52.678;4.900;2023-10-31T07:53:38;1.80;;;0.50;;
74196;SDS011;62555;52.678;4.900;2023-10-31T07:56:03;1.15;;;0.22;;
74196;SDS011;62555;52.678;4.900;2023-10-31T07:58:28;1.23;;;0.40;;
74196;SDS011;62555;52.678;4.900;2023-10-31T08:00:54;3.37;;;1.23;;
74196;SDS011;62555;52.678;4.900;2023-10-31T08:03:19;1.10;;;0.20;;
74196;SDS011;62555;52.678;4.900;2023-10-31T08:05:44;1.50;;;0.50;;
74196;SDS011;62555;52.678;4.900;2023-10-31T08:08:09;1.10;;;0.30;;
74196;SDS011;62555;52.678;4.900;2023-10-31T08:10:34;1.92;;;0.40;;
74196;SDS011;62555;52.678;4.900;2023-10-31T08:13:00;1.27;;;0.30;;
74196;SDS011;62555;52.678;4.900;2023-10-31T08:15:25;1.25;;;0.30;;
74196;SDS011;62555;52.678;4.900;2023-10-31T08:17:50;1.03;;;0.50;;
74196;SDS011;62555;52.678;4.900;2023-10-31T08:20:15;1.07;;;0.30;;
74196;SDS011;62555;52.678;4.900;2023-10-31T08:22:40;1.13;;;0.60;;
74196;SDS011;62555;52.678;4.900;2023-10-31T08:25:07;1.60;;;0.43;;
74196;SDS011;62555;52.678;4.900;2023-10-31T08:27:33;0.60;;;0.50;;
74196;SDS011;62555;52.678;4.900;2023-10-31T08:29:58;0.80;;;0.37;;
74196;SDS011;62555;52.678;4.900;2023-10-31T08:32:23;0.30;;;0.30;;
74196;SDS011;62555;52.678;4.900;2023-10-31T08:34:49;2.17;;;0.52;;
74196;SDS011;62555;52.678;4.900;2023-10-31T08:37:14;1.75;;;0.50;;
74196;SDS011;62555;52.678;4.900;2023-10-31T08:39:40;1.10;;;0.40;;
74196;SDS011;62555;52.678;4.900;2023-10-31T08:42:05;1.33;;;0.40;;
74196;SDS011;62555;52.678;4.900;2023-10-31T08:44:30;0.80;;;0.30;;
74196;SDS011;62555;52.678;4.900;2023-10-31T08:46:56;0.50;;;0.50;;
74196;SDS011;62555;52.678;4.900;2023-10-31T08:49:21;1.48;;;0.40;;
74196;SDS011;62555;52.678;4.900;2023-10-31T08:51:46;2.43;;;0.60;;
74196;SDS011;62555;52.678;4.900;2023-10-31T08:54:11;1.67;;;0.60;;
74196;SDS011;62555;52.678;4.900;2023-10-31T08:56:36;1.80;;;0.63;;
74196;SDS011;62555;52.678;4.900;2023-10-31T08:59:01;2.07;;;0.53;;
74196;SDS011;62555;52.678;4.900;2023-10-31T09:01:27;2.40;;;0.70;;
74196;SDS011;62555;52.678;4.900;2023-10-31T09:03:53;2.80;;;0.77;;
74196;SDS011;62555;52.678;4.900;2023-10-31T09:06:19;3.23;;;1.10;;
74196;SDS011;62555;52.678;4.900;2023-10-31T09:08:44;3.00;;;1.10;;
74196;SDS011;62555;52.678;4.900;2023-10-31T09:11:09;3.57;;;1.30;;
74196;SDS011;62555;52.678;4.900;2023-10-31T09:13:34;5.30;;;1.67;;
74196;SDS011;62555;52.678;4.900;2023-10-31T09:15:59;5.30;;;1.70;;
74196;SDS011;62555;52.678;4.900;2023-10-31T09:18:25;5.47;;;1.70;;
74196;SDS011;62555;52.678;4.900;2023-10-31T09:20:50;6.93;;;2.20;;
74196;SDS011;62555;52.678;4.900;2023-10-31T09:23:15;6.80;;;1.80;;
74196;SDS011;62555;52.678;4.900;2023-10-31T09:25:42;8.95;;;3.10;;
74196;SDS011;62555;52.678;4.900;2023-10-31T09:28:07;7.78;;;3.40;;
74196;SDS011;62555;52.678;4.900;2023-10-31T09:30:33;6.27;;;2.33;;
74196;SDS011;62555;52.678;4.900;2023-10-31T09:32:58;4.70;;;3.00;;
74196;SDS011;62555;52.678;4.900;2023-10-31T09:35:23;9.73;;;2.78;;
74196;SDS011;62555;52.678;4.900;2023-10-31T09:37:48;8.70;;;3.67;;
74196;SDS011;62555;52.678;4.900;2023-10-31T09:40:14;10.13;;;2.78;;
74196;SDS011;62555;52.678;4.900;2023-10-31T09:42:39;8.38;;;3.08;;
74196;SDS011;62555;52.678;4.900;2023-10-31T09:45:04;6.15;;;2.63;;
74196;SDS011;62555;52.678;4.900;2023-10-31T09:47:30;6.03;;;2.80;;
74196;SDS011;62555;52.678;4.900;2023-10-31T09:49:55;10.05;;;3.90;;
74196;SDS011;62555;52.678;4.900;2023-10-31T09:52:20;6.80;;;3.47;;
74196;SDS011;62555;52.678;4.900;2023-10-31T09:54:47;9.40;;;3.40;;
74196;SDS011;62555;52.678;4.900;2023-10-31T09:57:14;11.07;;;3.78;;
74196;SDS011;62555;52.678;4.900;2023-10-31T09:59:39;10.45;;;4.00;;
74196;SDS011;62555;52.678;4.900;2023-10-31T10:02:04;7.97;;;3.77;;
74196;SDS011;62555;52.678;4.900;2023-10-31T10:04:29;7.30;;;3.58;;
74196;SDS011;62555;52.678;4.900;2023-10-31T10:06:58;8.23;;;3.30;;
74196;SDS011;62555;52.678;4.900;2023-10-31T10:09:23;9.60;;;3.20;;
74196;SDS011;62555;52.678;4.900;2023-10-31T10:11:49;8.27;;;3.47;;
74196;SDS011;62555;52.678;4.900;2023-10-31T10:14:14;11.33;;;4.30;;
74196;SDS011;62555;52.678;4.900;2023-10-31T10:16:39;9.37;;;3.87;;
74196;SDS011;62555;52.678;4.900;2023-10-31T10:19:25;8.93;;;3.50;;
74196;SDS011;62555;52.678;4.900;2023-10-31T10:21:54;8.55;;;3.78;;
74196;SDS011;62555;52.678;4.900;2023-10-31T10:24:20;8.85;;;4.43;;
74196;SDS011;62555;52.678;4.900;2023-10-31T10:26:46;9.23;;;3.63;;
74196;SDS011;62555;52.678;4.900;2023-10-31T10:29:11;8.88;;;3.97;;
74196;SDS011;62555;52.678;4.900;2023-10-31T10:31:36;7.90;;;4.00;;
74196;SDS011;62555;52.678;4.900;2023-10-31T10:34:01;10.00;;;3.83;;
74196;SDS011;62555;52.678;4.900;2023-10-31T10:36:27;8.80;;;4.57;;
74196;SDS011;62555;52.678;4.900;2023-10-31T10:38:54;10.60;;;5.18;;
74196;SDS011;62555;52.678;4.900;2023-10-31T10:41:21;9.23;;;4.35;;
74196;SDS011;62555;52.678;4.900;2023-10-31T10:43:46;10.13;;;4.80;;
74196;SDS011;62555;52.678;4.900;2023-10-31T10:46:12;10.23;;;4.22;;
74196;SDS011;62555;52.678;4.900;2023-10-31T10:48:40;9.00;;;4.00;;
74196;SDS011;62555;52.678;4.900;2023-10-31T10:51:20;7.45;;;3.90;;
74196;SDS011;62555;52.678;4.900;2023-10-31T10:53:51;6.78;;;3.58;;
74196;SDS011;62555;52.678;4.900;2023-10-31T10:56:26;12.02;;;4.47;;
74196;SDS011;62555;52.678;4.900;2023-10-31T11:01:18;9.18;;;3.80;;
74196;SDS011;62555;52.678;4.900;2023-10-31T11:03:44;8.70;;;3.45;;
74196;SDS011;62555;52.678;4.900;2023-10-31T11:06:10;13.30;;;4.50;;
74196;SDS011;62555;52.678;4.900;2023-10-31T11:08:35;9.48;;;3.92;;
74196;SDS011;62555;52.678;4.900;2023-10-31T11:11:01;7.60;;;3.47;;
74196;SDS011;62555;52.678;4.900;2023-10-31T11:13:26;5.97;;;3.00;;
74196;SDS011;62555;52.678;4.900;2023-10-31T11:15:52;7.18;;;3.47;;
74196;SDS011;62555;52.678;4.900;2023-10-31T11:18:18;6.05;;;3.40;;
74196;SDS011;62555;52.678;4.900;2023-10-31T11:20:43;6.45;;;3.20;;
74196;SDS011;62555;52.678;4.900;2023-10-31T11:23:08;7.97;;;3.88;;
74196;SDS011;62555;52.678;4.900;2023-10-31T11:25:33;6.63;;;3.40;;
74196;SDS011;62555;52.678;4.900;2023-10-31T11:28:10;5.28;;;3.03;;
74196;SDS011;62555;52.678;4.900;2023-10-31T11:30:36;6.60;;;3.72;;
74196;SDS011;62555;52.678;4.900;2023-10-31T11:33:01;7.87;;;3.33;;
74196;SDS011;62555;52.678;4.900;2023-10-31T11:35:29;5.95;;;2.83;;
74196;SDS011;62555;52.678;4.900;2023-10-31T11:38:04;5.68;;;3.08;;
74196;SDS011;62555;52.678;4.900;2023-10-31T11:40:31;8.38;;;3.30;;
74196;SDS011;62555;52.678;4.900;2023-10-31T11:42:57;7.78;;;3.20;;
74196;SDS011;62555;52.678;4.900;2023-10-31T11:45:29;6.47;;;3.50;;
74196;SDS011;62555;52.678;4.900;2023-10-31T11:47:55;5.53;;;2.80;;
74196;SDS011;62555;52.678;4.900;2023-10-31T11:50:20;6.32;;;2.90;;
74196;SDS011;62555;52.678;4.900;2023-10-31T11:52:46;4.20;;;2.30;;
74196;SDS011;62555;52.678;4.900;2023-10-31T11:55:22;6.28;;;2.47;;
74196;SDS011;62555;52.678;4.900;2023-10-31T11:57:47;7.47;;;2.53;;
74196;SDS011;62555;52.678;4.900;2023-10-31T12:00:19;5.50;;;2.70;;
74196;SDS011;62555;52.678;4.900;2023-10-31T12:02:56;6.38;;;2.83;;
74196;SDS011;62555;52.678;4.900;2023-10-31T12:05:21;5.80;;;3.00;;
74196;SDS011;62555;52.678;4.900;2023-10-31T12:07:46;7.07;;;2.50;;
74196;SDS011;62555;52.678;4.900;2023-10-31T12:10:12;7.30;;;2.63;;
74196;SDS011;62555;52.678;4.900;2023-10-31T12:12:37;5.85;;;2.55;;
74196;SDS011;62555;52.678;4.900;2023-10-31T12:15:06;6.53;;;2.60;;
74196;SDS011;62555;52.678;4.900;2023-10-31T12:17:32;7.25;;;3.35;;
74196;SDS011;62555;52.678;4.900;2023-10-31T12:19:57;6.82;;;2.80;;
74196;SDS011;62555;52.678;4.900;2023-10-31T12:22:23;4.38;;;2.40;;
74196;SDS011;62555;52.678;4.900;2023-10-31T12:24:48;6.20;;;3.23;;
74196;SDS011;62555;52.678;4.900;2023-10-31T12:27:13;5.33;;;2.90;;
74196;SDS011;62555;52.678;4.900;2023-10-31T12:29:38;6.32;;;2.70;;
74196;SDS011;62555;52.678;4.900;2023-10-31T12:32:04;4.47;;;2.40;;
74196;SDS011;62555;52.678;4.900;2023-10-31T12:34:30;7.05;;;2.58;;
74196;SDS011;62555;52.678;4.900;2023-10-31T12:36:55;5.40;;;2.73;;
74196;SDS011;62555;52.678;4.900;2023-10-31T12:39:21;4.38;;;2.33;;
74196;SDS011;62555;52.678;4.900;2023-10-31T12:41:47;3.83;;;2.20;;
74196;SDS011;62555;52.678;4.900;2023-10-31T12:44:13;3.35;;;2.00;;
74196;SDS011;62555;52.678;4.900;2023-10-31T12:46:40;4.63;;;2.55;;
74196;SDS011;62555;52.678;4.900;2023-10-31T12:49:12;4.32;;;2.25;;
74196;SDS011;62555;52.678;4.900;2023-10-31T12:51:38;3.83;;;2.15;;
74196;SDS011;62555;52.678;4.900;2023-10-31T12:54:26;3.97;;;2.30;;
74196;SDS011;62555;52.678;4.900;2023-10-31T12:56:51;6.13;;;1.88;;
74196;SDS011;62555;52.678;4.900;2023-10-31T12:59:17;3.13;;;2.13;;
74196;SDS011;62555;52.678;4.900;2023-10-31T13:01:43;5.47;;;2.28;;
74196;SDS011;62555;52.678;4.900;2023-10-31T13:04:09;5.03;;;2.20;;
74196;SDS011;62555;52.678;4.900;2023-10-31T13:06:34;3.90;;;1.80;;
74196;SDS011;62555;52.678;4.900;2023-10-31T13:08:59;4.53;;;1.87;;
74196;SDS011;62555;52.678;4.900;2023-10-31T13:11:31;5.28;;;1.98;;
74196;SDS011;62555;52.678;4.900;2023-10-31T13:13:56;5.15;;;2.47;;
74196;SDS011;62555;52.678;4.900;2023-10-31T13:16:21;4.05;;;1.80;;
74196;SDS011;62555;52.678;4.900;2023-10-31T13:18:47;3.67;;;2.00;;
74196;SDS011;62555;52.678;4.900;2023-10-31T13:21:12;4.40;;;2.17;;
74196;SDS011;62555;52.678;4.900;2023-10-31T13:23:39;4.25;;;2.20;;
74196;SDS011;62555;52.678;4.900;2023-10-31T13:26:04;4.53;;;2.70;;
74196;SDS011;62555;52.678;4.900;2023-10-31T13:28:29;4.13;;;1.63;;
74196;SDS011;62555;52.678;4.900;2023-10-31T13:33:22;3.15;;;1.77;;
74196;SDS011;62555;52.678;4.900;2023-10-31T13:35:48;3.08;;;1.38;;
74196;SDS011;62555;52.678;4.900;2023-10-31T13:38:13;3.03;;;1.60;;
74196;SDS011;62555;52.678;4.900;2023-10-31T13:40:38;3.20;;;1.30;;
74196;SDS011;62555;52.678;4.900;2023-10-31T13:43:04;3.28;;;1.55;;
74196;SDS011;62555;52.678;4.900;2023-10-31T13:45:30;3.92;;;1.50;;
74196;SDS011;62555;52.678;4.900;2023-10-31T13:47:55;3.45;;;1.70;;
74196;SDS011;62555;52.678;4.900;2023-10-31T13:50:20;2.63;;;1.55;;
74196;SDS011;62555;52.678;4.900;2023-10-31T13:52:45;4.07;;;1.70;;
74196;SDS011;62555;52.678;4.900;2023-10-31T13:55:11;2.90;;;1.90;;
74196;SDS011;62555;52.678;4.900;2023-10-31T13:57:36;2.92;;;1.95;;
74196;SDS011;62555;52.678;4.900;2023-10-31T14:00:02;4.05;;;2.60;;
74196;SDS011;62555;52.678;4.900;2023-10-31T14:02:28;2.10;;;1.23;;
74196;SDS011;62555;52.678;4.900;2023-10-31T14:04:53;3.47;;;1.38;;
74196;SDS011;62555;52.678;4.900;2023-10-31T14:07:20;4.90;;;1.63;;
74196;SDS011;62555;52.678;4.900;2023-10-31T14:09:46;2.97;;;1.42;;
74196;SDS011;62555;52.678;4.900;2023-10-31T14:12:13;2.53;;;1.20;;
74196;SDS011;62555;52.678;4.900;2023-10-31T14:14:38;3.67;;;1.60;;
74196;SDS011;62555;52.678;4.900;2023-10-31T14:17:03;2.88;;;1.67;;
74196;SDS011;62555;52.678;4.900;2023-10-31T14:19:29;3.13;;;1.40;;
74196;SDS011;62555;52.678;4.900;2023-10-31T14:21:55;2.15;;;1.50;;
74196;SDS011;62555;52.678;4.900;2023-10-31T14:24:20;2.23;;;1.40;;
74196;SDS011;62555;52.678;4.900;2023-10-31T14:26:47;2.25;;;1.20;;
74196;SDS011;62555;52.678;4.900;2023-10-31T14:29:12;2.40;;;1.83;;
74196;SDS011;62555;52.678;4.900;2023-10-31T14:31:38;3.27;;;1.50;;
74196;SDS011;62555;52.678;4.900;2023-10-31T14:34:03;3.28;;;1.40;;
74196;SDS011;62555;52.678;4.900;2023-10-31T14:36:30;3.20;;;1.20;;
74196;SDS011;62555;52.678;4.900;2023-10-31T14:38:55;2.85;;;1.55;;
74196;SDS011;62555;52.678;4.900;2023-10-31T14:41:20;2.95;;;1.30;;
74196;SDS011;62555;52.678;4.900;2023-10-31T14:43:45;2.53;;;1.37;;
74196;SDS011;62555;52.678;4.900;2023-10-31T14:46:11;2.17;;;1.23;;